sensor_id;sensor_type;location;lat;lon;timestamp;pressure;altitude;pressure_sealevel;temperature;humidity
76553;BME280;65395;53.168;18.156;2023-04-03T00:01:34;102133.70;;;0.02;72.92
76553;BME280;65395;53.168;18.156;2023-04-03T00:04:01;102134.23;;;0.00;72.86
76553;BME280;65395;53.168;18.156;2023-04-03T00:06:28;102133.57;;;-0.01;73.08
76553;BME280;65395;53.168;18.156;2023-04-03T00:08:55;102132.81;;;-0.04;73.36
76553;BME280;65395;53.168;18.156;2023-04-03T00:11:22;102131.60;;;-0.05;73.00
76553;BME280;65395;53.168;18.156;2023-04-03T00:13:49;102131.90;;;-0.06;73.05
76553;BME280;65395;53.168;18.156;2023-04-03T00:16:16;102127.65;;;-0.08;73.05
76553;BME280;65395;53.168;18.156;2023-04-03T00:18:42;102129.23;;;-0.11;73.13
76553;BME280;65395;53.168;18.156;2023-04-03T00:21:11;102126.95;;;-0.14;73.20
76553;BME280;65395;53.168;18.156;2023-04-03T00:23:38;102127.27;;;-0.18;73.06
76553;BME280;65395;53.168;18.156;2023-04-03T00:26:05;102125.95;;;-0.22;72.95
76553;BME280;65395;53.168;18.156;2023-04-03T00:28:32;102127.42;;;-0.25;73.14
76553;BME280;65395;53.168;18.156;2023-04-03T00:30:58;102129.25;;;-0.28;73.68
76553;BME280;65395;53.168;18.156;2023-04-03T00:33:26;102126.73;;;-0.28;73.84
76553;BME280;65395;53.168;18.156;2023-04-03T00:35:52;102125.09;;;-0.29;73.61
76553;BME280;65395;53.168;18.156;2023-04-03T00:38:19;102121.98;;;-0.32;73.61
76553;BME280;65395;53.168;18.156;2023-04-03T00:40:48;102123.89;;;-0.35;73.43
76553;BME280;65395;53.168;18.156;2023-04-03T00:43:20;102120.58;;;-0.40;73.17
76553;BME280;65395;53.168;18.156;2023-04-03T00:45:50;102125.57;;;-0.43;73.88
76553;BME280;65395;53.168;18.156;2023-04-03T00:48:21;102124.45;;;-0.45;74.06
76553;BME280;65395;53.168;18.156;2023-04-03T00:50:49;102122.17;;;-0.48;74.33
76553;BME280;65395;53.168;18.156;2023-04-03T00:53:21;102125.34;;;-0.49;74.38
76553;BME280;65395;53.168;18.156;2023-04-03T00:55:51;102126.57;;;-0.50;74.16
76553;BME280;65395;53.168;18.156;2023-04-03T00:58:21;102123.98;;;-0.52;74.16
76553;BME280;65395;53.168;18.156;2023-04-03T01:00:54;102126.30;;;-0.54;73.86
76553;BME280;65395;53.168;18.156;2023-04-03T01:03:24;102126.85;;;-0.57;74.14
76553;BME280;65395;53.168;18.156;2023-04-03T01:05:52;102128.09;;;-0.59;74.31
76553;BME280;65395;53.168;18.156;2023-04-03T01:08:18;102126.10;;;-0.59;74.54
76553;BME280;65395;53.168;18.156;2023-04-03T01:10:45;102125.10;;;-0.60;74.70
76553;BME280;65395;53.168;18.156;2023-04-03T01:13:25;102129.83;;;-0.60;74.58
76553;BME280;65395;53.168;18.156;2023-04-03T01:15:53;102126.21;;;-0.62;74.49
76553;BME280;65395;53.168;18.156;2023-04-03T01:18:22;102126.69;;;-0.65;74.74
76553;BME280;65395;53.168;18.156;2023-04-03T01:23:58;102131.48;;;-0.67;74.82
76553;BME280;65395;53.168;18.156;2023-04-03T01:26:27;102131.71;;;-0.69;75.13
76553;BME280;65395;53.168;18.156;2023-04-03T01:28:55;102129.91;;;-0.70;75.07
76553;BME280;65395;53.168;18.156;2023-04-03T01:31:26;102130.95;;;-0.72;75.08
76553;BME280;65395;53.168;18.156;2023-04-03T01:33:54;102136.33;;;-0.73;75.27
76553;BME280;65395;53.168;18.156;2023-04-03T01:36:24;102138.73;;;-0.74;75.36
76553;BME280;65395;53.168;18.156;2023-04-03T01:38:52;102139.54;;;-0.74;75.48
76553;BME280;65395;53.168;18.156;2023-04-03T01:41:20;102138.94;;;-0.73;75.27
76553;BME280;65395;53.168;18.156;2023-04-03T01:43:48;102141.77;;;-0.74;75.24
76553;BME280;65395;53.168;18.156;2023-04-03T01:46:16;102139.77;;;-0.77;75.32
76553;BME280;65395;53.168;18.156;2023-04-03T01:48:43;102143.27;;;-0.77;75.74
76553;BME280;65395;53.168;18.156;2023-04-03T01:51:10;102142.73;;;-0.77;75.60
76553;BME280;65395;53.168;18.156;2023-04-03T01:53:37;102142.88;;;-0.77;75.82
76553;BME280;65395;53.168;18.156;2023-04-03T01:56:04;102143.89;;;-0.76;75.80
76553;BME280;65395;53.168;18.156;2023-04-03T01:58:31;102142.85;;;-0.76;75.87
76553;BME280;65395;53.168;18.156;2023-04-03T02:00:58;102144.92;;;-0.74;75.88
76553;BME280;65395;53.168;18.156;2023-04-03T02:03:26;102146.77;;;-0.74;75.84
76553;BME280;65395;53.168;18.156;2023-04-03T02:05:53;102146.08;;;-0.76;75.64
76553;BME280;65395;53.168;18.156;2023-04-03T02:08:20;102145.33;;;-0.77;75.82
76553;BME280;65395;53.168;18.156;2023-04-03T02:10:49;102145.70;;;-0.79;75.81
76553;BME280;65395;53.168;18.156;2023-04-03T02:13:16;102143.84;;;-0.81;75.86
76553;BME280;65395;53.168;18.156;2023-04-03T02:15:45;102147.58;;;-0.81;75.70
76553;BME280;65395;53.168;18.156;2023-04-03T02:18:12;102149.33;;;-0.83;75.38
76553;BME280;65395;53.168;18.156;2023-04-03T02:20:39;102150.38;;;-0.85;75.74
76553;BME280;65395;53.168;18.156;2023-04-03T02:23:05;102152.98;;;-0.85;75.88
76553;BME280;65395;53.168;18.156;2023-04-03T02:25:33;102151.41;;;-0.83;75.88
76553;BME280;65395;53.168;18.156;2023-04-03T02:28:00;102155.60;;;-0.82;75.95
76553;BME280;65395;53.168;18.156;2023-04-03T02:30:27;102156.46;;;-0.81;76.11
76553;BME280;65395;53.168;18.156;2023-04-03T02:32:53;102156.06;;;-0.79;76.14
76553;BME280;65395;53.168;18.156;2023-04-03T02:35:21;102157.83;;;-0.78;76.03
76553;BME280;65395;53.168;18.156;2023-04-03T02:37:48;102155.92;;;-0.78;76.05
76553;BME280;65395;53.168;18.156;2023-04-03T02:40:15;102159.13;;;-0.78;76.03
76553;BME280;65395;53.168;18.156;2023-04-03T02:42:42;102162.36;;;-0.78;76.29
76553;BME280;65395;53.168;18.156;2023-04-03T02:45:09;102161.35;;;-0.77;76.38
76553;BME280;65395;53.168;18.156;2023-04-03T02:47:36;102161.36;;;-0.73;76.15
76553;BME280;65395;53.168;18.156;2023-04-03T02:50:03;102165.25;;;-0.74;75.94
76553;BME280;65395;53.168;18.156;2023-04-03T02:52:31;102167.83;;;-0.76;76.43
76553;BME280;65395;53.168;18.156;2023-04-03T02:54:58;102169.94;;;-0.76;76.39
76553;BME280;65395;53.168;18.156;2023-04-03T02:57:25;102168.08;;;-0.74;76.54
76553;BME280;65395;53.168;18.156;2023-04-03T02:59:52;102169.60;;;-0.73;76.56
76553;BME280;65395;53.168;18.156;2023-04-03T03:02:19;102170.68;;;-0.73;76.41
76553;BME280;65395;53.168;18.156;2023-04-03T03:04:46;102169.52;;;-0.75;76.45
76553;BME280;65395;53.168;18.156;2023-04-03T03:07:12;102172.59;;;-0.77;76.54
76553;BME280;65395;53.168;18.156;2023-04-03T03:09:39;102175.63;;;-0.78;76.40
76553;BME280;65395;53.168;18.156;2023-04-03T03:12:06;102177.67;;;-0.79;76.76
76553;BME280;65395;53.168;18.156;2023-04-03T03:14:33;102177.55;;;-0.79;76.67
76553;BME280;65395;53.168;18.156;2023-04-03T03:16:59;102183.70;;;-0.81;76.56
76553;BME280;65395;53.168;18.156;2023-04-03T03:19:26;102187.90;;;-0.82;76.54
76553;BME280;65395;53.168;18.156;2023-04-03T03:21:53;102188.03;;;-0.84;76.54
76553;BME280;65395;53.168;18.156;2023-04-03T03:24:19;102190.97;;;-0.84;76.68
76553;BME280;65395;53.168;18.156;2023-04-03T03:26:48;102190.81;;;-0.84;76.46
76553;BME280;65395;53.168;18.156;2023-04-03T03:29:15;102188.00;;;-0.84;76.58
76553;BME280;65395;53.168;18.156;2023-04-03T03:31:42;102189.75;;;-0.84;76.36
76553;BME280;65395;53.168;18.156;2023-04-03T03:34:08;102187.55;;;-0.87;76.11
76553;BME280;65395;53.168;18.156;2023-04-03T03:36:35;102192.12;;;-0.91;76.43
76553;BME280;65395;53.168;18.156;2023-04-03T03:39:02;102194.34;;;-0.94;76.79
76553;BME280;65395;53.168;18.156;2023-04-03T03:41:29;102193.90;;;-0.96;76.83
76553;BME280;65395;53.168;18.156;2023-04-03T03:43:56;102196.45;;;-0.99;76.58
76553;BME280;65395;53.168;18.156;2023-04-03T03:46:23;102198.63;;;-1.01;77.03
76553;BME280;65395;53.168;18.156;2023-04-03T03:48:50;102198.48;;;-1.03;76.92
76553;BME280;65395;53.168;18.156;2023-04-03T03:51:17;102201.89;;;-1.04;76.71
76553;BME280;65395;53.168;18.156;2023-04-03T03:53:44;102202.12;;;-1.06;76.52
76553;BME280;65395;53.168;18.156;2023-04-03T03:56:14;102205.30;;;-1.08;76.94
76553;BME280;65395;53.168;18.156;2023-04-03T03:58:41;102212.45;;;-1.09;76.71
76553;BME280;65395;53.168;18.156;2023-04-03T04:01:08;102215.50;;;-1.10;76.63
76553;BME280;65395;53.168;18.156;2023-04-03T04:03:39;102215.70;;;-1.10;76.84
76553;BME280;65395;53.168;18.156;2023-04-03T04:06:07;102217.80;;;-1.10;76.71
76553;BME280;65395;53.168;18.156;2023-04-03T04:08:34;102217.67;;;-1.11;76.52
76553;BME280;65395;53.168;18.156;2023-04-03T04:11:01;102217.13;;;-1.13;76.57
76553;BME280;65395;53.168;18.156;2023-04-03T04:13:28;102221.41;;;-1.15;76.65
76553;BME280;65395;53.168;18.156;2023-04-03T04:15:55;102222.80;;;-1.15;76.65
76553;BME280;65395;53.168;18.156;2023-04-03T04:18:22;102223.39;;;-1.16;76.56
76553;BME280;65395;53.168;18.156;2023-04-03T04:20:49;102223.69;;;-1.17;76.67
76553;BME280;65395;53.168;18.156;2023-04-03T04:23:17;102228.15;;;-1.16;76.79
76553;BME280;65395;53.168;18.156;2023-04-03T04:25:46;102227.14;;;-1.17;76.48
76553;BME280;65395;53.168;18.156;2023-04-03T04:28:14;102229.59;;;-1.18;76.69
76553;BME280;65395;53.168;18.156;2023-04-03T04:30:41;102227.52;;;-1.18;76.64
76553;BME280;65395;53.168;18.156;2023-04-03T04:33:08;102230.41;;;-1.18;76.59
76553;BME280;65395;53.168;18.156;2023-04-03T04:35:36;102230.61;;;-1.17;76.64
76553;BME280;65395;53.168;18.156;2023-04-03T04:38:03;102230.02;;;-1.16;76.57
76553;BME280;65395;53.168;18.156;2023-04-03T04:40:31;102231.14;;;-1.15;76.59
76553;BME280;65395;53.168;18.156;2023-04-03T04:42:59;102235.95;;;-1.12;76.55
76553;BME280;65395;53.168;18.156;2023-04-03T04:45:25;102236.48;;;-1.06;76.39
76553;BME280;65395;53.168;18.156;2023-04-03T04:47:55;102235.05;;;-1.00;76.24
76553;BME280;65395;53.168;18.156;2023-04-03T04:50:23;102241.09;;;-0.94;76.09
76553;BME280;65395;53.168;18.156;2023-04-03T04:52:51;102244.40;;;-0.89;75.83
76553;BME280;65395;53.168;18.156;2023-04-03T04:55:18;102247.00;;;-0.86;75.68
76553;BME280;65395;53.168;18.156;2023-04-03T04:57:44;102248.61;;;-0.84;75.57
76553;BME280;65395;53.168;18.156;2023-04-03T05:00:12;102253.27;;;-0.82;75.30
76553;BME280;65395;53.168;18.156;2023-04-03T05:02:39;102256.20;;;-0.80;75.22
76553;BME280;65395;53.168;18.156;2023-04-03T05:05:07;102258.99;;;-0.80;75.05
76553;BME280;65395;53.168;18.156;2023-04-03T05:07:34;102259.05;;;-0.79;74.96
76553;BME280;65395;53.168;18.156;2023-04-03T05:10:02;102263.52;;;-0.75;74.89
76553;BME280;65395;53.168;18.156;2023-04-03T05:12:29;102261.17;;;-0.69;74.61
76553;BME280;65395;53.168;18.156;2023-04-03T05:14:59;102264.64;;;-0.65;74.44
76553;BME280;65395;53.168;18.156;2023-04-03T05:17:26;102266.42;;;-0.61;74.17
76553;BME280;65395;53.168;18.156;2023-04-03T05:19:55;102265.41;;;-0.58;74.04
76553;BME280;65395;53.168;18.156;2023-04-03T05:22:22;102267.31;;;-0.56;73.92
76553;BME280;65395;53.168;18.156;2023-04-03T05:24:49;102265.20;;;-0.56;73.82
76553;BME280;65395;53.168;18.156;2023-04-03T05:27:16;102262.73;;;-0.59;73.72
76553;BME280;65395;53.168;18.156;2023-04-03T05:29:45;102262.30;;;-0.61;73.61
76553;BME280;65395;53.168;18.156;2023-04-03T05:32:15;102264.40;;;-0.63;73.62
76553;BME280;65395;53.168;18.156;2023-04-03T05:34:42;102266.21;;;-0.64;73.60
76553;BME280;65395;53.168;18.156;2023-04-03T05:37:09;102265.42;;;-0.66;73.56
76553;BME280;65395;53.168;18.156;2023-04-03T05:39:36;102268.06;;;-0.65;73.61
76553;BME280;65395;53.168;18.156;2023-04-03T05:42:05;102265.95;;;-0.63;73.50
76553;BME280;65395;53.168;18.156;2023-04-03T05:44:32;102265.56;;;-0.58;73.43
76553;BME280;65395;53.168;18.156;2023-04-03T05:46:59;102268.02;;;-0.52;73.35
76553;BME280;65395;53.168;18.156;2023-04-03T05:49:26;102266.77;;;-0.44;73.28
76553;BME280;65395;53.168;18.156;2023-04-03T05:51:53;102267.09;;;-0.37;72.98
76553;BME280;65395;53.168;18.156;2023-04-03T05:54:26;102270.11;;;-0.28;72.59
76553;BME280;65395;53.168;18.156;2023-04-03T05:56:56;102273.64;;;-0.20;72.55
76553;BME280;65395;53.168;18.156;2023-04-03T05:59:23;102272.77;;;-0.11;72.25
76553;BME280;65395;53.168;18.156;2023-04-03T06:01:51;102268.14;;;-0.02;71.82
76553;BME280;65395;53.168;18.156;2023-04-03T06:04:18;102275.33;;;0.06;71.67
76553;BME280;65395;53.168;18.156;2023-04-03T06:06:51;102269.95;;;0.12;71.61
76553;BME280;65395;53.168;18.156;2023-04-03T06:09:20;102279.35;;;0.22;71.12
76553;BME280;65395;53.168;18.156;2023-04-03T06:11:48;102273.71;;;0.31;70.83
76553;BME280;65395;53.168;18.156;2023-04-03T06:14:15;102283.45;;;0.39;70.18
76553;BME280;65395;53.168;18.156;2023-04-03T06:16:42;102286.40;;;0.47;70.32
76553;BME280;65395;53.168;18.156;2023-04-03T06:19:10;102290.70;;;0.53;70.02
76553;BME280;65395;53.168;18.156;2023-04-03T06:21:40;102291.30;;;0.58;69.40
76553;BME280;65395;53.168;18.156;2023-04-03T06:24:07;102293.83;;;0.63;69.51
76553;BME280;65395;53.168;18.156;2023-04-03T06:26:34;102299.92;;;0.67;69.27
76553;BME280;65395;53.168;18.156;2023-04-03T06:29:01;102299.73;;;0.71;68.91
76553;BME280;65395;53.168;18.156;2023-04-03T06:31:28;102305.33;;;0.78;68.21
76553;BME280;65395;53.168;18.156;2023-04-03T06:33:55;102304.77;;;0.83;68.01
76553;BME280;65395;53.168;18.156;2023-04-03T06:36:22;102304.42;;;0.88;68.62
76553;BME280;65395;53.168;18.156;2023-04-03T06:38:49;102307.61;;;0.91;67.28
76553;BME280;65395;53.168;18.156;2023-04-03T06:41:16;102309.05;;;0.94;67.06
76553;BME280;65395;53.168;18.156;2023-04-03T06:43:44;102308.94;;;0.98;66.99
76553;BME280;65395;53.168;18.156;2023-04-03T06:46:15;102310.00;;;1.03;66.04
76553;BME280;65395;53.168;18.156;2023-04-03T06:48:42;102309.79;;;1.12;66.87
76553;BME280;65395;53.168;18.156;2023-04-03T06:51:29;102313.14;;;1.26;67.01
76553;BME280;65395;53.168;18.156;2023-04-03T06:53:58;102321.98;;;1.40;66.01
76553;BME280;65395;53.168;18.156;2023-04-03T06:56:26;102327.67;;;1.53;65.98
76553;BME280;65395;53.168;18.156;2023-04-03T06:58:54;102322.60;;;1.65;66.08
76553;BME280;65395;53.168;18.156;2023-04-03T07:01:25;102330.51;;;1.79;65.74
76553;BME280;65395;53.168;18.156;2023-04-03T07:03:54;102330.50;;;1.98;66.22
76553;BME280;65395;53.168;18.156;2023-04-03T07:06:22;102331.52;;;2.23;66.04
76553;BME280;65395;53.168;18.156;2023-04-03T07:08:49;102328.92;;;2.47;64.13
76553;BME280;65395;53.168;18.156;2023-04-03T07:11:16;102333.23;;;2.65;63.41
76553;BME280;65395;53.168;18.156;2023-04-03T07:13:42;102335.86;;;2.82;64.25
76553;BME280;65395;53.168;18.156;2023-04-03T07:16:10;102342.41;;;3.03;63.33
76553;BME280;65395;53.168;18.156;2023-04-03T07:18:37;102345.23;;;3.24;62.92
76553;BME280;65395;53.168;18.156;2023-04-03T07:21:04;102344.00;;;3.36;59.53
76553;BME280;65395;53.168;18.156;2023-04-03T07:23:31;102346.64;;;3.39;58.69
76553;BME280;65395;53.168;18.156;2023-04-03T07:25:58;102350.52;;;3.40;58.28
76553;BME280;65395;53.168;18.156;2023-04-03T07:28:25;102353.73;;;3.44;58.37
76553;BME280;65395;53.168;18.156;2023-04-03T07:30:59;102346.78;;;3.58;56.83
76553;BME280;65395;53.168;18.156;2023-04-03T07:33:26;102354.02;;;3.69;56.70
76553;BME280;65395;53.168;18.156;2023-04-03T07:35:53;102352.95;;;3.78;55.45
76553;BME280;65395;53.168;18.156;2023-04-03T07:38:20;102357.27;;;3.81;54.63
76553;BME280;65395;53.168;18.156;2023-04-03T07:40:48;102344.81;;;3.70;53.56
76553;BME280;65395;53.168;18.156;2023-04-03T07:43:17;102356.48;;;3.70;54.54
76553;BME280;65395;53.168;18.156;2023-04-03T07:45:44;102366.89;;;3.63;53.07
76553;BME280;65395;53.168;18.156;2023-04-03T07:48:12;102363.73;;;3.56;53.53
76553;BME280;65395;53.168;18.156;2023-04-03T07:50:40;102367.41;;;3.48;52.94
76553;BME280;65395;53.168;18.156;2023-04-03T07:53:07;102369.86;;;3.38;51.97
76553;BME280;65395;53.168;18.156;2023-04-03T07:55:35;102371.95;;;3.27;50.53
76553;BME280;65395;53.168;18.156;2023-04-03T07:58:11;102371.92;;;3.21;52.75
76553;BME280;65395;53.168;18.156;2023-04-03T08:00:38;102369.21;;;3.18;51.60
76553;BME280;65395;53.168;18.156;2023-04-03T08:03:06;102368.66;;;3.17;53.96
76553;BME280;65395;53.168;18.156;2023-04-03T08:05:37;102369.90;;;3.19;53.79
76553;BME280;65395;53.168;18.156;2023-04-03T08:08:05;102365.99;;;3.21;52.04
76553;BME280;65395;53.168;18.156;2023-04-03T08:10:34;102372.69;;;3.21;50.71
76553;BME280;65395;53.168;18.156;2023-04-03T08:13:02;102370.52;;;3.19;52.02
76553;BME280;65395;53.168;18.156;2023-04-03T08:15:30;102369.83;;;3.19;51.91
76553;BME280;65395;53.168;18.156;2023-04-03T08:17:58;102372.63;;;3.19;51.20
76553;BME280;65395;53.168;18.156;2023-04-03T08:20:25;102373.88;;;3.18;51.07
76553;BME280;65395;53.168;18.156;2023-04-03T08:22:53;102372.36;;;3.16;50.99
76553;BME280;65395;53.168;18.156;2023-04-03T08:25:20;102371.38;;;3.14;51.34
76553;BME280;65395;53.168;18.156;2023-04-03T08:27:47;102368.88;;;3.15;51.88
76553;BME280;65395;53.168;18.156;2023-04-03T08:30:14;102369.20;;;3.16;51.04
76553;BME280;65395;53.168;18.156;2023-04-03T08:32:41;102375.16;;;3.20;50.21
76553;BME280;65395;53.168;18.156;2023-04-03T08:35:10;102377.13;;;3.19;49.06
76553;BME280;65395;53.168;18.156;2023-04-03T08:37:38;102374.28;;;3.19;49.72
76553;BME280;65395;53.168;18.156;2023-04-03T08:40:07;102377.07;;;3.17;49.40
76553;BME280;65395;53.168;18.156;2023-04-03T08:43:37;102373.30;;;3.17;50.06
76553;BME280;65395;53.168;18.156;2023-04-03T08:45:50;102379.58;;;3.21;51.17
76553;BME280;65395;53.168;18.156;2023-04-03T08:48:29;102379.84;;;3.25;49.76
76553;BME280;65395;53.168;18.156;2023-04-03T08:51:02;102382.41;;;3.27;50.54
76553;BME280;65395;53.168;18.156;2023-04-03T08:53:34;102383.36;;;3.26;50.82
76553;BME280;65395;53.168;18.156;2023-04-03T08:56:05;102386.96;;;3.25;49.43
76553;BME280;65395;53.168;18.156;2023-04-03T08:58:42;102382.39;;;3.22;50.07
76553;BME280;65395;53.168;18.156;2023-04-03T09:01:19;102380.80;;;3.28;51.45
76553;BME280;65395;53.168;18.156;2023-04-03T09:03:47;102376.83;;;3.47;51.12
76553;BME280;65395;53.168;18.156;2023-04-03T09:06:25;102375.81;;;3.70;49.53
76553;BME280;65395;53.168;18.156;2023-04-03T09:09:12;102378.70;;;3.93;50.09
76553;BME280;65395;53.168;18.156;2023-04-03T09:12:00;102382.52;;;4.13;50.70
76553;BME280;65395;53.168;18.156;2023-04-03T09:14:57;102383.31;;;4.30;49.74
76553;BME280;65395;53.168;18.156;2023-04-03T09:17:41;102380.63;;;4.45;49.41
76553;BME280;65395;53.168;18.156;2023-04-03T09:22:57;102378.96;;;4.78;48.51
76553;BME280;65395;53.168;18.156;2023-04-03T09:25:27;102383.15;;;4.98;48.45
76553;BME280;65395;53.168;18.156;2023-04-03T09:28:00;102381.98;;;5.19;47.04
76553;BME280;65395;53.168;18.156;2023-04-03T09:30:28;102381.30;;;5.31;46.80
76553;BME280;65395;53.168;18.156;2023-04-03T09:32:56;102377.48;;;5.48;46.79
76553;BME280;65395;53.168;18.156;2023-04-03T09:35:27;102381.67;;;5.68;47.24
76553;BME280;65395;53.168;18.156;2023-04-03T09:38:16;102380.83;;;5.86;44.96
76553;BME280;65395;53.168;18.156;2023-04-03T09:40:47;102382.84;;;5.94;45.21
76553;BME280;65395;53.168;18.156;2023-04-03T09:43:27;102384.38;;;5.92;44.68
76553;BME280;65395;53.168;18.156;2023-04-03T09:45:55;102385.71;;;5.82;44.85
76553;BME280;65395;53.168;18.156;2023-04-03T09:48:24;102388.22;;;5.65;44.70
76553;BME280;65395;53.168;18.156;2023-04-03T09:50:55;102387.83;;;5.46;44.51
76553;BME280;65395;53.168;18.156;2023-04-03T09:53:37;102383.64;;;5.18;44.14
76553;BME280;65395;53.168;18.156;2023-04-03T09:56:24;102375.39;;;5.06;45.31
76553;BME280;65395;53.168;18.156;2023-04-03T09:59:07;102383.42;;;5.12;44.70
76553;BME280;65395;53.168;18.156;2023-04-03T10:01:39;102379.34;;;5.05;45.15
76553;BME280;65395;53.168;18.156;2023-04-03T10:04:10;102381.02;;;4.96;44.27
76553;BME280;65395;53.168;18.156;2023-04-03T10:06:40;102383.16;;;4.72;44.24
76553;BME280;65395;53.168;18.156;2023-04-03T10:09:29;102381.53;;;4.57;44.82
76553;BME280;65395;53.168;18.156;2023-04-03T10:12:03;102377.10;;;4.64;45.73
76553;BME280;65395;53.168;18.156;2023-04-03T10:14:33;102373.25;;;4.81;45.77
76553;BME280;65395;53.168;18.156;2023-04-03T10:17:14;102371.28;;;4.94;45.39
76553;BME280;65395;53.168;18.156;2023-04-03T10:19:47;102381.08;;;5.05;43.94
76553;BME280;65395;53.168;18.156;2023-04-03T10:22:34;102376.70;;;5.04;43.91
76553;BME280;65395;53.168;18.156;2023-04-03T10:27:58;102372.84;;;5.11;44.08
76553;BME280;65395;53.168;18.156;2023-04-03T10:33:39;102379.14;;;4.90;42.97
76553;BME280;65395;53.168;18.156;2023-04-03T10:39:20;102374.00;;;5.14;43.54
76553;BME280;65395;53.168;18.156;2023-04-03T10:42:15;102368.80;;;5.29;44.22
76553;BME280;65395;53.168;18.156;2023-04-03T10:45:06;102380.94;;;5.39;42.91
76553;BME280;65395;53.168;18.156;2023-04-03T10:47:43;102374.25;;;5.31;42.87
76553;BME280;65395;53.168;18.156;2023-04-03T10:50:38;102372.48;;;5.28;43.95
76553;BME280;65395;53.168;18.156;2023-04-03T10:53:24;102374.25;;;5.35;42.93
76553;BME280;65395;53.168;18.156;2023-04-03T10:56:07;102367.41;;;5.58;42.50
76553;BME280;65395;53.168;18.156;2023-04-03T10:58:43;102365.67;;;5.73;42.27
76553;BME280;65395;53.168;18.156;2023-04-03T11:01:16;102369.54;;;5.78;42.91
76553;BME280;65395;53.168;18.156;2023-04-03T11:03:49;102374.63;;;5.86;42.20
76553;BME280;65395;53.168;18.156;2023-04-03T11:06:21;102370.89;;;5.90;41.64
76553;BME280;65395;53.168;18.156;2023-04-03T11:08:54;102357.80;;;5.81;41.57
76553;BME280;65395;53.168;18.156;2023-04-03T11:11:27;102367.35;;;5.76;41.58
76553;BME280;65395;53.168;18.156;2023-04-03T11:14:21;102372.31;;;5.67;41.81
76553;BME280;65395;53.168;18.156;2023-04-03T11:19:47;102359.96;;;6.05;41.63
76553;BME280;65395;53.168;18.156;2023-04-03T11:22:30;102363.56;;;5.98;41.51
76553;BME280;65395;53.168;18.156;2023-04-03T11:28:01;102348.61;;;5.80;41.37
76553;BME280;65395;53.168;18.156;2023-04-03T11:30:33;102338.30;;;5.99;41.63
76553;BME280;65395;53.168;18.156;2023-04-03T11:33:31;102336.54;;;6.28;41.29
76553;BME280;65395;53.168;18.156;2023-04-03T11:36:08;102344.08;;;6.56;40.96
76553;BME280;65395;53.168;18.156;2023-04-03T11:38:41;102344.23;;;6.82;41.01
76553;BME280;65395;53.168;18.156;2023-04-03T11:41:10;102342.59;;;6.95;39.81
76553;BME280;65395;53.168;18.156;2023-04-03T11:46:19;102342.42;;;6.98;39.77
76553;BME280;65395;53.168;18.156;2023-04-03T11:48:48;102338.95;;;6.85;39.89
76553;BME280;65395;53.168;18.156;2023-04-03T11:56:48;102342.85;;;6.15;40.03
76553;BME280;65395;53.168;18.156;2023-04-03T11:59:22;102336.02;;;6.02;40.47
76553;BME280;65395;53.168;18.156;2023-04-03T12:01:51;102333.79;;;6.05;40.05
76553;BME280;65395;53.168;18.156;2023-04-03T12:04:21;102332.76;;;6.22;40.38
76553;BME280;65395;53.168;18.156;2023-04-03T12:06:51;102337.80;;;6.36;39.51
76553;BME280;65395;53.168;18.156;2023-04-03T12:12:24;102328.85;;;6.23;40.20
76553;BME280;65395;53.168;18.156;2023-04-03T12:14:54;102330.98;;;6.19;40.39
76553;BME280;65395;53.168;18.156;2023-04-03T12:17:25;102334.10;;;6.11;40.10
76553;BME280;65395;53.168;18.156;2023-04-03T12:19:53;102331.19;;;5.99;40.03
76553;BME280;65395;53.168;18.156;2023-04-03T12:22:20;102327.92;;;5.86;39.46
76553;BME280;65395;53.168;18.156;2023-04-03T12:24:51;102321.85;;;5.86;40.59
76553;BME280;65395;53.168;18.156;2023-04-03T12:27:29;102317.23;;;6.23;40.19
76553;BME280;65395;53.168;18.156;2023-04-03T12:30:07;102309.42;;;6.71;40.50
76553;BME280;65395;53.168;18.156;2023-04-03T12:32:50;102312.54;;;7.00;39.92
76553;BME280;65395;53.168;18.156;2023-04-03T12:35:27;102322.47;;;6.97;39.40
76553;BME280;65395;53.168;18.156;2023-04-03T12:38:20;102323.35;;;6.84;39.86
76553;BME280;65395;53.168;18.156;2023-04-03T12:40:58;102319.55;;;6.67;40.11
76553;BME280;65395;53.168;18.156;2023-04-03T12:43:49;102317.22;;;6.55;40.10
76553;BME280;65395;53.168;18.156;2023-04-03T12:46:22;102314.67;;;6.59;39.80
76553;BME280;65395;53.168;18.156;2023-04-03T12:48:53;102311.63;;;6.86;40.20
76553;BME280;65395;53.168;18.156;2023-04-03T12:54:04;102316.36;;;7.27;38.18
76553;BME280;65395;53.168;18.156;2023-04-03T12:56:39;102312.16;;;7.33;38.35
76553;BME280;65395;53.168;18.156;2023-04-03T12:59:18;102308.56;;;7.40;38.50
76553;BME280;65395;53.168;18.156;2023-04-03T13:01:53;102313.48;;;7.43;38.44
76553;BME280;65395;53.168;18.156;2023-04-03T13:04:21;102302.53;;;7.39;38.78
76553;BME280;65395;53.168;18.156;2023-04-03T13:06:49;102302.35;;;7.35;38.44
76553;BME280;65395;53.168;18.156;2023-04-03T13:09:21;102303.58;;;7.33;38.78
76553;BME280;65395;53.168;18.156;2023-04-03T13:11:50;102303.17;;;7.38;38.13
76553;BME280;65395;53.168;18.156;2023-04-03T13:14:21;102312.74;;;7.21;37.31
76553;BME280;65395;53.168;18.156;2023-04-03T13:16:59;102313.27;;;6.98;38.57
76553;BME280;65395;53.168;18.156;2023-04-03T13:19:27;102310.42;;;6.79;40.00
76553;BME280;65395;53.168;18.156;2023-04-03T13:22:01;102305.41;;;6.73;40.35
76553;BME280;65395;53.168;18.156;2023-04-03T13:24:31;102305.42;;;6.64;40.14
76553;BME280;65395;53.168;18.156;2023-04-03T13:26:59;102305.98;;;6.58;39.85
76553;BME280;65395;53.168;18.156;2023-04-03T13:29:32;102304.12;;;6.62;39.42
76553;BME280;65395;53.168;18.156;2023-04-03T13:32:01;102301.63;;;6.87;39.03
76553;BME280;65395;53.168;18.156;2023-04-03T13:34:38;102304.63;;;6.85;39.07
76553;BME280;65395;53.168;18.156;2023-04-03T13:37:20;102298.16;;;6.75;40.28